Latest Weather Observations for Kuitpo

IDS60801

Issued at 11:05 pm CST Thursday 18 September 2014 (issued every 30 minutes, with the page automatically refreshed every 10 minutes)

About weather observations | Map of weather stations | Latest weather observations for SA | Other Formats
Station Details ID: 023887 Name: KUITPO FOREST RESERVE Lat: -35.17 Lon: 138.68 Height: 365.0 m
Data from the previous 72 hours. | See also: Recent months at Kuitpo
Date/Time
CST
Temp
°C
App
Temp
°C
Dew
Point
Rel
Hum
%
Delta-T
°C
Wind Press
QNH
hPa
Press
MSL
hPa
Rain
since 9 am
mm
Dir
 
Spd
km/h
Gust
km/h
Spd
kts
Gust
kts
18/11:00pm 6.3 2.1 5.6 95 0.3 SE 17 24 9 13 1024.3 1024.3 0.2
18/10:30pm 6.6 2.5 6.0 96 0.3 SE 17 20 9 11 1024.7 1024.7 0.2
18/10:00pm 6.5 2.8 6.1 97 0.2 ESE 15 19 8 10 1024.9 1024.8 0.2
18/09:30pm 6.5 2.8 6.2 98 0.1 E 15 20 8 11 1025.0 1024.9 0.2
18/09:00pm 6.4 3.0 6.1 98 0.1 ESE 13 17 7 9 1025.0 1024.9 0.2
18/08:30pm 6.7 3.4 6.3 97 0.2 SE 13 19 7 10 1024.9 1024.8 0.2
18/08:00pm 6.6 3.3 6.2 97 0.2 SE 13 17 7 9 1024.7 1024.7 0.2
18/07:30pm 6.9 3.2 6.2 95 0.3 SE 15 20 8 11 1024.4 1024.4 0.2
18/07:00pm 7.1 3.3 5.9 92 0.5 SE 15 19 8 10 1024.2 1024.2 0.2
18/06:30pm 7.3 4.3 5.8 90 0.7 SE 11 15 6 8 1024.1 1024.1 0.2
18/06:00pm 8.0 5.0 6.1 88 0.9 SE 11 15 6 8 1023.8 1023.8 0.2
18/05:30pm 8.5 5.6 6.3 86 1.0 SE 11 19 6 10 1023.7 1023.6 0.2
18/05:00pm 9.3 6.8 6.6 83 1.3 S 9 17 5 9 1023.8 1023.8 0.2
18/04:30pm 9.4 6.5 6.5 82 1.4 SSE 11 17 6 9 1023.4 1023.3 0.2
18/04:00pm 9.6 6.9 7.4 86 1.1 S 11 19 6 10 1023.3 1023.2 0.2
18/03:30pm 10.2 7.2 6.0 75 2.0 SSE 11 17 6 9 1023.2 1023.1 0.2
18/03:00pm 11.1 8.0 5.6 69 2.6 SE 11 22 6 12 1023.1 1023.0 0.2
18/02:30pm 11.8 8.5 6.3 69 2.6 S 13 19 7 10 1023.3 1023.2 0.2
18/02:00pm 10.6 8.2 6.9 78 1.8 SW 9 13 5 7 1023.4 1023.3 0.2
18/01:30pm 10.6 8.2 6.9 78 1.8 S 9 20 5 11 1023.6 1023.5 0.2
18/01:00pm 11.2 9.0 6.1 71 2.4 SSE 7 13 4 7 1023.5 1023.4 0.2
18/12:30pm 10.1 7.7 6.8 80 1.6 SSE 9 13 5 7 1023.9 1023.9 0.2
18/12:00pm 9.2 6.9 7.6 90 0.8 S 9 15 5 8 1024.3 1024.3 0.2
18/11:30am 8.3 4.7 6.6 89 0.8 S 15 22 8 12 1024.6 1024.6 0.2
18/11:00am 10.3 7.0 6.5 77 1.8 ESE 13 20 7 11 1024.4 1024.4 0.0
18/10:30am 8.9 6.0 6.3 84 1.2 SE 11 17 6 9 1024.6 1024.6 0.0
18/10:00am 9.0 7.0 7.3 89 0.8 ESE 7 13 4 7 1025.1 1025.0 0.0
18/09:30am 8.0 5.3 7.2 95 0.4 S 11 17 6 9 1025.4 1025.3 0.0
18/09:00am 7.9 5.4 6.4 90 0.7 S 9 15 5 8 1025.4 1025.3 0.2
18/08:30am 8.2 6.1 6.7 90 0.7 W 7 9 4 5 1025.0 1024.9 0.2
18/08:00am 8.3 7.7 7.4 94 0.4 CALM 0 0 0 0 1024.6 1024.6 0.2
18/07:30am 7.2 6.5 6.9 98 0.1 CALM 0 0 0 0 1024.5 1024.5 0.2
18/07:00am 6.6 4.6 6.2 97 0.2 SSW 6 7 3 4 1024.3 1024.3 0.2
18/06:30am 6.7 4.6 6.0 95 0.3 NE 6 7 3 4 1023.7 1023.6 0.2
18/06:00am 6.6 4.0 6.0 96 0.3 ENE 9 11 5 6 1023.3 1023.2 0.2
18/05:30am 6.1 3.8 5.8 98 0.1 SE 7 9 4 5 1023.2 1023.1 0.2
18/05:00am 5.9 3.4 4.9 93 0.4 SE 7 11 4 6 1023.0 1022.9 0.2
18/04:30am 6.7 4.4 4.7 87 0.9 SSW 6 9 3 5 1023.0 1022.9 0.2
18/04:00am 6.8 4.3 5.0 88 0.8 SW 7 9 4 5 1022.9 1022.8 0.2
18/03:30am 6.7 4.3 4.4 85 1.0 NW 6 7 3 4 1022.8 1022.7 0.2
18/03:00am 6.8 4.3 5.0 88 0.8 SW 7 11 4 6 1022.9 1022.8 0.2
18/02:30am 5.8 2.1 4.6 92 0.5 S 13 17 7 9 1023.1 1023.0 0.2
18/02:00am 6.2 3.6 4.0 86 1.0 SSE 7 15 4 8 1023.4 1023.3 0.2
18/01:30am 6.9 4.8 3.9 81 1.3 W 4 7 2 4 1023.3 1023.2 0.2
18/01:00am 7.1 4.4 3.7 79 1.5 WSW 7 9 4 5 1023.3 1023.2 0.2
18/12:30am 7.0 4.0 4.3 83 1.2 SW 9 13 5 7 1023.6 1023.5 0.2
18/12:00am 7.0 3.9 3.8 80 1.4 SW 9 15 5 8 1023.5 1023.4 0.2
 
Date/Time
CST
Temp
°C
App
Temp
°C
Dew
Point
Rel
Hum
%
Delta-T
°C
Wind Press
QNH
hPa
Press
MSL
hPa
Rain
since 9 am
mm
Dir
 
Spd
km/h
Gust
km/h
Spd
kts
Gust
kts
17/11:30pm 7.0 3.7 2.3 72 2.0 SW 9 13 5 7 1023.5 1023.4 0.2
17/11:00pm 7.0 4.0 1.9 70 2.1 S 7 9 4 5 1023.2 1023.1 0.2
17/10:30pm 6.3 2.6 2.2 75 1.7 S 11 15 6 8 1023.2 1023.1 0.2
17/10:00pm 6.5 2.4 2.2 74 1.8 S 13 19 7 10 1023.4 1023.3 0.2
17/09:30pm 6.6 2.5 2.3 74 1.8 S 13 15 7 8 1023.3 1023.2 0.2
17/09:00pm 6.4 2.7 2.1 74 1.8 S 11 15 6 8 1023.2 1023.1 0.2
17/08:30pm 6.2 2.5 2.5 77 1.5 S 11 15 6 8 1023.0 1022.9 0.2
17/08:00pm 6.4 2.8 2.9 78 1.5 S 11 17 6 9 1022.9 1022.8 0.2
17/07:30pm 6.6 3.0 3.2 79 1.5 S 11 17 6 9 1022.7 1022.6 0.2
17/07:00pm 7.0 3.5 3.3 77 1.6 S 11 15 6 8 1022.3 1022.2 0.2
17/06:30pm 7.4 3.9 3.3 75 1.8 S 11 17 6 9 1022.0 1021.9 0.2
17/06:00pm 8.4 4.9 3.7 72 2.1 S 11 19 6 10 1021.7 1021.7 0.2
17/05:30pm 9.5 5.8 4.3 70 2.3 S 13 20 7 11 1021.5 1021.5 0.2
17/05:00pm 10.0 6.4 4.8 70 2.4 S 13 24 7 13 1021.3 1021.2 0.2
17/04:30pm 10.7 6.8 5.3 69 2.5 SSW 15 24 8 13 1021.1 1021.0 0.2
17/04:00pm 10.9 7.8 5.7 70 2.5 S 11 17 6 9 1020.8 1020.7 0.2
17/03:30pm 11.5 7.2 5.2 65 2.9 SSW 17 24 9 13 1020.5 1020.4 0.2
17/03:00pm 12.5 8.6 5.4 62 3.4 SW 15 24 8 13 1020.2 1020.1 0.2
17/02:30pm 11.9 7.9 4.9 62 3.3 SW 15 24 8 13 1020.2 1020.1 0.2
17/02:00pm 12.1 8.2 5.3 63 3.2 SSW 15 26 8 14 1020.2 1020.1 0.2
17/01:30pm 11.6 7.5 6.3 70 2.5 SSW 17 26 9 14 1020.3 1020.2 0.2
17/01:00pm 11.6 7.5 6.1 69 2.6 SSW 17 24 9 13 1020.3 1020.2 0.2
17/12:30pm 11.3 7.3 6.6 73 2.3 SW 17 26 9 14 1020.3 1020.2 0.2
17/12:00pm 10.9 8.5 8.5 85 1.2 SW 11 22 6 12 1020.5 1020.4 0.2
17/11:30am 9.4 5.1 7.8 90 0.8 SW 20 41 11 22 1020.5 1020.4 0.2
17/11:00am 11.2 7.9 7.9 80 1.6 SW 15 26 8 14 1020.3 1020.2 0.0
17/10:30am 11.4 7.6 7.7 78 1.8 SW 17 28 9 15 1020.3 1020.2 0.0
17/10:00am 11.5 8.0 8.7 83 1.4 SW 17 26 9 14 1020.2 1020.1 0.0
17/09:30am 11.0 7.6 9.1 88 1.0 WSW 17 26 9 14 1020.3 1020.2 0.0
17/09:00am 9.0 5.6 9.0 100 0.0 SW 17 22 9 12 1020.1 1020.0 -
17/08:30am 9.8 7.7 9.8 100 0.0 WSW 11 20 6 11 1019.7 1019.6 -
17/08:00am 8.9 6.2 8.9 100 0.0 WSW 13 20 7 11 1019.4 1019.3 -
17/07:30am 8.5 5.7 8.5 100 0.0 WSW 13 20 7 11 1018.9 1018.8 -
17/07:00am 8.1 5.2 8.1 100 0.0 SW 13 20 7 11 1018.5 1018.4 -
17/06:30am 7.8 4.8 7.8 100 0.0 WSW 13 20 7 11 1018.1 1018.0 -
17/06:00am 7.5 4.5 7.5 100 0.0 WSW 13 20 7 11 1017.8 1017.7 -
17/05:30am 7.7 4.7 7.7 100 0.0 WSW 13 19 7 10 1017.6 1017.5 -
17/05:00am 7.6 4.2 7.6 100 0.0 WSW 15 20 8 11 1017.4 1017.3 -
17/04:30am 7.8 4.1 7.8 100 0.0 WSW 17 24 9 13 1017.2 1017.1 -
17/04:00am 7.9 4.2 7.9 100 0.0 SW 17 24 9 13 1017.0 1016.9 -
17/03:30am 7.9 4.2 7.9 100 0.0 WSW 17 24 9 13 1016.9 1016.8 -
17/03:00am 8.0 5.4 7.9 99 0.0 WSW 11 19 6 10 1017.0 1016.9 0.0
17/02:30am 8.1 4.7 7.7 97 0.2 SW 15 24 8 13 1017.1 1017.0 -
17/02:00am 7.8 4.3 7.4 97 0.2 WSW 15 24 8 13 1017.2 1017.1 -
17/01:30am 8.2 3.7 6.8 91 0.7 WSW 20 32 11 17 1017.5 1017.4 -
17/01:00am 8.5 5.0 5.6 82 1.3 WSW 13 20 7 11 1017.5 1017.4 -
17/12:30am 8.5 5.3 4.9 78 1.6 WSW 11 15 6 8 1017.7 1017.6 -
17/12:00am 8.5 4.9 4.9 78 1.6 SW 13 17 7 9 1017.7 1017.6 -
 
Date/Time
CST
Temp
°C
App
Temp
°C
Dew
Point
Rel
Hum
%
Delta-T
°C
Wind Press
QNH
hPa
Press
MSL
hPa
Rain
since 9 am
mm
Dir
 
Spd
km/h
Gust
km/h
Spd
kts
Gust
kts
16/11:30pm 8.4 4.4 5.0 79 1.5 WSW 15 26 8 14 1017.7 1017.6 -
16/11:00pm 8.7 4.2 6.2 84 1.2 WSW 19 30 10 16 1017.7 1017.6 -
16/10:30pm 8.5 5.0 7.0 90 0.7 WSW 15 20 8 11 1017.6 1017.5 -
16/10:00pm 8.5 5.0 7.0 90 0.7 WSW 15 24 8 13 1017.6 1017.5 -
16/09:30pm 8.6 5.2 7.5 93 0.5 WSW 15 22 8 12 1017.4 1017.3 -
16/09:00pm 8.5 4.9 8.2 98 0.1 WSW 17 24 9 13 1017.2 1017.1 0.0
16/08:30pm 9.0 5.4 8.2 95 0.4 WSW 17 24 9 13 1016.8 1016.7 -
16/08:00pm 8.9 5.4 7.0 88 0.9 W 15 24 8 13 1016.5 1016.3 -
16/07:30pm 9.1 4.5 6.5 84 1.2 WSW 20 32 11 17 1016.4 1016.2 -
16/07:00pm 9.6 5.1 6.3 80 1.6 WSW 19 33 10 18 1016.0 1015.9 -
16/06:30pm 9.9 6.6 8.2 89 0.8 W 15 26 8 14 1015.8 1015.7 -
16/06:00pm 9.9 6.7 8.3 90 0.8 W 15 24 8 13 1015.6 1015.5 -
16/05:30pm 10.8 7.3 8.6 86 1.1 W 17 30 9 16 1015.6 1015.5 -
16/05:00pm 11.0 7.2 8.9 87 1.1 W 19 32 10 17 1015.5 1015.4 -
16/04:30pm 11.2 7.1 8.8 85 1.2 W 20 35 11 19 1015.3 1015.2 -
16/04:00pm 11.7 7.9 8.9 83 1.4 W 19 26 10 14 1015.3 1015.2 -
16/03:30pm 11.7 7.7 8.4 80 1.7 WSW 19 28 10 15 1015.1 1015.0 -
16/03:00pm 12.2 8.3 6.9 70 2.6 W 17 28 9 15 1015.0 1014.9 -
16/02:00pm 12.2 7.9 5.4 63 3.2 W 17 30 9 16 1015.3 1015.2 0.2
16/01:30pm 12.3 8.0 7.8 74 2.2 W 20 35 11 19 1015.3 1015.2 0.2
16/01:00pm 13.4 8.8 6.7 64 3.3 W 20 37 11 20 1015.6 1015.5 0.2
16/12:30pm 13.6 9.3 6.9 64 3.3 W 19 28 10 15 1015.8 1015.7 0.2
16/12:00pm 13.9 9.6 7.2 64 3.3 W 19 30 10 16 1016.0 1015.9 0.2
16/11:30am 13.0 8.9 7.7 70 2.6 W 19 32 10 17 1016.3 1016.1 0.0
16/11:00am 12.4 8.3 7.7 73 2.3 W 19 30 10 16 1016.6 1016.4 0.0
16/10:30am 13.0 9.5 8.7 75 2.2 W 17 28 9 15 1016.6 1016.4 0.0
16/10:00am 12.3 8.7 8.2 76 2.1 WSW 17 32 9 17 1016.7 1016.5 0.0
16/09:30am 11.0 7.7 9.6 91 0.7 WSW 17 28 9 15 1016.8 1016.7 0.0
16/09:00am 11.0 8.5 11.0 100 0.0 W 15 26 8 14 1016.8 1016.7 2.2
16/08:30am 10.6 7.6 10.6 100 0.0 WSW 17 26 9 14 1016.9 1016.8 2.2
16/08:00am 9.9 6.7 9.9 100 0.0 SW 17 26 9 14 1016.8 1016.7 2.2
16/07:30am 9.7 6.4 9.7 100 0.0 WSW 17 28 9 15 1016.5 1016.3 2.2
16/07:00am 9.5 6.2 9.5 100 0.0 WSW 17 26 9 14 1016.3 1016.1 2.2
16/06:30am 9.4 6.8 9.4 100 0.0 WSW 13 20 7 11 1016.0 1015.9 2.2
16/06:00am 9.3 5.9 9.3 100 0.0 WSW 17 26 9 14 1015.7 1015.6 1.8
16/05:30am 9.2 5.8 9.2 100 0.0 WSW 17 28 9 15 1015.7 1015.6 1.8
16/05:00am 9.3 5.9 9.3 100 0.0 SW 17 28 9 15 1015.6 1015.5 1.8
16/04:30am 9.0 6.3 9.0 100 0.0 WSW 13 22 7 12 1015.2 1015.1 1.8
16/04:00am 8.9 6.6 8.9 100 0.0 WSW 11 19 6 10 1015.1 1015.0 1.8
16/03:30am 9.1 5.7 9.1 100 0.0 WSW 17 24 9 13 1014.8 1014.7 1.8
16/03:00am 9.0 6.3 9.0 100 0.0 WSW 13 24 7 13 1014.8 1014.7 1.8
16/02:30am 8.6 5.8 8.6 100 0.0 WSW 13 20 7 11 1014.8 1014.7 1.8
16/02:00am 8.0 5.5 8.0 100 0.0 W 11 15 6 8 1015.2 1015.1 1.8
16/01:30am 8.4 5.9 8.4 100 0.0 WSW 11 17 6 9 1015.3 1015.2 1.8
16/01:00am 8.4 5.6 8.4 100 0.0 WSW 13 17 7 9 1015.5 1015.4 1.8
16/12:30am 8.5 5.3 8.5 100 0.0 SW 15 20 8 11 1015.6 1015.5 1.8
16/12:00am 8.4 5.9 8.4 100 0.0 WSW 11 15 6 8 1015.6 1015.5 1.8
 
Date/Time
CST
Temp
°C
App
Temp
°C
Dew
Point
Rel
Hum
%
Delta-T
°C
Wind Press
QNH
hPa
Press
MSL
hPa
Rain
since 9 am
mm
Dir
 
Spd
km/h
Gust
km/h
Spd
kts
Gust
kts
15/11:30pm 8.6 6.2 8.6 100 0.0 WSW 11 15 6 8 1015.5 1015.4 1.8

Other Formats:

Comma delimited format used in spreadsheet applications
http://www.bom.gov.au/fwo/IDS60801/IDS60801.94683.axf

JavaScript Object Notation format (JSON) in row-major order
http://www.bom.gov.au/fwo/IDS60801/IDS60801.94683.json